Rolls, Texas
Current Conditions -  °F | °C
As of 5:18 PM on Wednesday 17 Dec 2014 (Local Time) from KDYS Reporting Station
Overcast Overcast  
Wind Chill: 52°   Ceiling: 1400
Heat Index: 52°   Visibility: 10mi
Dew Point: 43°   Wind: 6mph
Humidity: 71%   Direction: 180°S
Pressure: 30.02"   Gusts: NA
Location:  33.1968°N, 99.9025°W
Report Text: KDYS 172318Z AUTO 18005KT 10SM OVC014 11/06 A3002 RMK AO2
Loading
Personal Weather Stations






























Interactive Weather Map New forecast layout! Learn more

10-Day Weather Forecast

Advertisements
Track Severe Weather on mobile